createdAt,value
2022-08-03T00:03:23.163Z,56.95
2022-08-03T00:08:24.747Z,56.71
2022-08-03T00:13:26.332Z,56.95
2022-08-03T00:18:27.851Z,56.50
2022-08-03T00:23:50.845Z,56.60
2022-08-03T00:28:51.196Z,56.39
2022-08-03T00:33:58.982Z,56.48
2022-08-03T00:39:01.871Z,55.97
2022-08-03T00:44:03.490Z,55.92
2022-08-03T00:49:05.106Z,55.54
2022-08-03T00:54:06.635Z,55.79
2022-08-03T00:59:09.922Z,56.09
2022-08-03T01:04:11.430Z,56.50
2022-08-03T01:09:20.882Z,56.40
2022-08-03T01:14:30.480Z,56.32
2022-08-03T01:19:42.892Z,55.99
2022-08-03T01:24:53.016Z,55.88
2022-08-03T01:30:10.914Z,56.69
2022-08-03T01:35:15.721Z,56.99
2022-08-03T01:40:17.528Z,56.85
2022-08-03T01:45:18.993Z,56.94
2022-08-03T01:50:24.937Z,56.42
2022-08-03T01:55:28.261Z,57.12
2022-08-03T02:00:30.061Z,56.93
2022-08-03T02:05:31.594Z,57.35
2022-08-03T02:10:34.734Z,57.02
2022-08-03T02:15:37.725Z,56.99
2022-08-03T02:20:39.171Z,56.83
2022-08-03T02:25:43.185Z,56.71
2022-08-03T02:30:46.401Z,56.65
2022-08-03T02:35:55.523Z,56.31
2022-08-03T02:40:57.412Z,56.84
2022-08-03T02:45:58.939Z,57.35
2022-08-03T02:51:01.488Z,57.50
2022-08-03T02:56:03.021Z,57.51
2022-08-03T03:01:04.610Z,57.67
2022-08-03T03:06:06.683Z,57.42
2022-08-03T03:11:08.211Z,57.33
2022-08-03T03:16:09.796Z,57.21
2022-08-03T03:21:11.367Z,57.22
2022-08-03T03:26:14.199Z,57.56
2022-08-03T03:31:15.730Z,57.41
2022-08-03T03:36:18.469Z,57.13
2022-08-03T03:41:20.005Z,57.49
2022-08-03T03:46:22.275Z,57.38
2022-08-03T03:51:23.798Z,57.34
2022-08-03T03:56:25.443Z,57.56
2022-08-03T04:01:27.339Z,57.24
2022-08-03T04:06:47.240Z,57.17
2022-08-03T04:11:52.956Z,57.55
2022-08-03T04:16:59.134Z,57.57
2022-08-03T04:22:03.294Z,57.40
2022-08-03T04:27:05.378Z,58.01
2022-08-03T04:32:06.899Z,57.58
2022-08-03T04:37:14.607Z,58.61
2022-08-03T04:42:16.115Z,58.37
2022-08-03T04:47:17.621Z,57.72
2022-08-03T04:52:19.159Z,58.30
2022-08-03T04:57:23.098Z,57.98
2022-08-03T05:02:25.191Z,57.89
2022-08-03T05:07:34.147Z,57.59
2022-08-03T05:12:37.566Z,57.59
2022-08-03T05:17:40.171Z,57.08
2022-08-03T05:22:41.727Z,57.12
2022-08-03T05:27:43.242Z,56.80
2022-08-03T05:32:44.762Z,56.71
2022-08-03T05:37:54.498Z,56.70
2022-08-03T05:42:57.015Z,56.44
2022-08-03T05:47:59.556Z,56.58
2022-08-03T05:53:01.110Z,56.38
2022-08-03T05:58:03.849Z,55.75
2022-08-03T06:03:05.410Z,55.66
2022-08-03T06:08:06.966Z,55.94
2022-08-03T06:13:08.498Z,55.57
2022-08-03T06:18:10.006Z,55.34
2022-08-03T06:23:15.968Z,55.58
2022-08-03T06:28:51.204Z,54.64
2022-08-03T06:34:30.461Z,54.07
2022-08-03T06:39:02.163Z,53.75
2022-08-03T06:44:04.542Z,53.72
2022-08-03T06:49:07.113Z,53.29
2022-08-03T06:54:08.662Z,53.05
2022-08-03T06:59:10.186Z,52.27
2022-08-03T07:04:31.693Z,52.56
2022-08-03T07:09:33.207Z,51.96
2022-08-03T07:14:35.066Z,52.09
2022-08-03T07:19:36.631Z,51.37
2022-08-03T07:24:38.558Z,51.81
2022-08-03T07:29:39.945Z,52.03
2022-08-03T07:34:41.471Z,51.46
2022-08-03T07:39:42.851Z,51.43
2022-08-03T07:44:44.367Z,50.91
2022-08-03T07:49:45.861Z,50.75
2022-08-03T07:54:47.395Z,51.11
2022-08-03T08:00:01.329Z,50.94
2022-08-03T08:05:05.926Z,50.06
2022-08-03T08:10:08.736Z,50.30
2022-08-03T08:15:10.340Z,50.10
2022-08-03T08:20:12.668Z,49.36
2022-08-03T08:25:14.228Z,49.42
2022-08-03T08:30:21.843Z,49.42
2022-08-03T08:35:23.401Z,48.92
2022-08-03T08:40:24.928Z,49.29
2022-08-03T08:45:26.663Z,48.85
2022-08-03T08:50:28.446Z,49.02
2022-08-03T08:55:30.213Z,48.56
2022-08-03T09:00:51.750Z,48.14
2022-08-03T09:05:56.079Z,48.39
2022-08-03T09:10:58.009Z,47.22
2022-08-03T09:16:18.702Z,48.04
2022-08-03T09:21:35.272Z,48.01
2022-08-03T09:26:37.279Z,47.91
2022-08-03T09:31:43.771Z,47.05
2022-08-03T09:36:49.433Z,47.49
2022-08-03T09:42:14.900Z,46.97
2022-08-03T09:47:28.402Z,47.39
2022-08-03T09:52:49.169Z,47.07
2022-08-03T09:57:51.826Z,47.42
2022-08-03T10:02:53.344Z,47.72
2022-08-03T10:07:54.863Z,47.43
2022-08-03T10:12:57.192Z,46.93
2022-08-03T10:17:58.716Z,46.80
2022-08-03T10:23:00.235Z,47.38
2022-08-03T10:28:04.280Z,47.06
2022-08-03T10:33:10.875Z,45.96
2022-08-03T10:38:43.396Z,46.69
2022-08-03T10:43:56.624Z,46.33
2022-08-03T10:48:58.202Z,45.28
2022-08-03T10:54:01.554Z,46.07
2022-08-03T10:59:03.833Z,45.88
2022-08-03T11:04:10.218Z,45.31
2022-08-03T11:09:13.861Z,45.56
2022-08-03T11:14:17.554Z,44.92
2022-08-03T11:19:22.519Z,45.45
2022-08-03T11:24:51.292Z,45.30
2022-08-03T11:30:11.686Z,45.27
2022-08-03T11:35:13.736Z,45.96
2022-08-03T11:40:40.025Z,45.96
2022-08-03T11:45:47.958Z,45.69
2022-08-03T11:50:49.785Z,45.91
2022-08-03T11:55:53.192Z,45.56
2022-08-03T12:01:04.033Z,45.28
2022-08-03T12:06:09.232Z,45.19
2022-08-03T12:11:12.219Z,43.85
2022-08-03T12:16:20.283Z,43.59
2022-08-03T12:21:24.642Z,43.09
2022-08-03T12:26:26.322Z,43.28
2022-08-03T12:31:27.887Z,42.48
2022-08-03T12:36:31.766Z,42.79
2022-08-03T12:41:35.089Z,42.50
2022-08-03T12:46:38.012Z,42.26
2022-08-03T12:51:42.213Z,41.82
2022-08-03T12:56:59.625Z,42.52
2022-08-03T13:02:01.247Z,42.71
2022-08-03T13:07:17.966Z,42.69
2022-08-03T13:12:23.707Z,43.52
2022-08-03T13:17:25.502Z,42.79
2022-08-03T13:22:28.938Z,42.45
2022-08-03T13:28:03.893Z,42.58
2022-08-03T13:32:52.136Z,43.18
2022-08-03T13:37:53.691Z,43.20
2022-08-03T13:42:55.296Z,42.90
2022-08-03T13:47:56.838Z,42.73
2022-08-03T13:52:58.425Z,42.51
2022-08-03T13:58:03.677Z,43.48
2022-08-03T14:03:14.205Z,43.44
2022-08-03T14:08:16.150Z,42.80
2022-08-03T14:13:18.349Z,44.67
2022-08-03T14:18:27.951Z,44.29
2022-08-03T14:23:35.299Z,43.87
2022-08-03T14:28:36.855Z,43.07
2022-08-03T14:33:38.444Z,43.40
2022-08-03T14:38:39.996Z,43.39
2022-08-03T14:43:41.513Z,43.35
2022-08-03T14:50:39.031Z,44.06
2022-08-03T14:54:24.583Z,44.46
2022-08-03T14:59:26.173Z,44.17
2022-08-03T15:04:27.692Z,45.12
2022-08-03T15:09:29.263Z,45.28
2022-08-03T15:14:33.160Z,45.15
2022-08-03T15:20:03.403Z,44.68
2022-08-03T15:24:56.661Z,45.08
2022-08-03T15:30:05.278Z,46.00
2022-08-03T15:35:11.306Z,46.96
2022-08-03T15:40:12.967Z,47.24
2022-08-03T15:45:14.472Z,47.48
2022-08-03T15:50:19.408Z,47.05
2022-08-03T15:55:20.935Z,47.70
2022-08-03T16:00:33.404Z,47.72
2022-08-03T16:05:35.453Z,47.11
2022-08-03T16:10:36.980Z,47.66
2022-08-03T16:15:39.097Z,48.81
2022-08-03T16:20:41.721Z,49.02
2022-08-03T16:25:49.386Z,49.90
2022-08-03T16:30:51.055Z,50.55
2022-08-03T16:35:52.430Z,50.81
2022-08-03T16:40:53.960Z,50.65
2022-08-03T16:45:55.389Z,51.14
2022-08-03T16:50:56.909Z,52.00
2022-08-03T16:55:58.490Z,52.26
2022-08-03T17:00:59.890Z,52.00
2022-08-03T17:06:01.805Z,52.06
2022-08-03T17:11:03.220Z,52.54
2022-08-03T17:16:04.902Z,52.94
2022-08-03T17:21:09.483Z,52.41
2022-08-03T17:26:21.204Z,52.59
2022-08-03T17:31:31.713Z,52.87
2022-08-03T17:37:02.255Z,53.20
2022-08-03T17:41:56.750Z,53.89
2022-08-03T17:46:59.734Z,53.94
2022-08-03T17:52:17.479Z,53.53
2022-08-03T17:57:27.405Z,53.14
2022-08-03T18:03:18.481Z,53.62
2022-08-03T18:08:36.371Z,52.81
2022-08-03T18:13:57.679Z,53.47
2022-08-03T18:19:00.121Z,52.94
2022-08-03T18:24:10.996Z,52.79
2022-08-03T18:29:12.673Z,52.17
2022-08-03T18:34:33.282Z,52.69
2022-08-03T18:39:49.816Z,52.78
2022-08-03T18:44:54.095Z,51.76
2022-08-03T18:50:09.003Z,52.12
2022-08-03T18:55:33.380Z,51.68
2022-08-03T19:00:54.208Z,52.13
2022-08-03T19:06:13.374Z,52.10
2022-08-03T19:12:12.431Z,52.21
2022-08-03T19:17:21.202Z,51.81
2022-08-03T19:22:27.111Z,51.79
2022-08-03T19:27:29.786Z,52.09
2022-08-03T19:32:32.201Z,52.51
2022-08-03T19:37:39.963Z,52.61
2022-08-03T19:43:00.988Z,53.00
2022-08-03T19:48:09.975Z,53.01
2022-08-03T19:53:12.277Z,52.77
2022-08-03T19:58:17.498Z,53.26
2022-08-03T20:03:23.329Z,53.62
2022-08-03T20:08:29.361Z,53.48
2022-08-03T20:13:30.880Z,53.60
2022-08-03T20:18:40.694Z,53.46
2022-08-03T20:24:02.746Z,53.83
2022-08-03T20:29:09.940Z,53.80
2022-08-03T20:34:11.830Z,54.51
2022-08-03T20:39:19.224Z,54.72
2022-08-03T20:44:25.947Z,55.27
2022-08-03T20:49:27.701Z,55.40
2022-08-03T20:54:31.634Z,54.89
2022-08-03T20:59:47.383Z,55.18
2022-08-03T21:04:52.842Z,55.28
2022-08-03T21:09:57.156Z,55.54
2022-08-03T21:15:06.248Z,54.92
2022-08-03T21:20:08.982Z,55.31
2022-08-03T21:25:10.659Z,54.91
2022-08-03T21:30:12.558Z,55.17
2022-08-03T21:35:14.342Z,55.24
2022-08-03T21:40:16.047Z,55.33
2022-08-03T21:45:17.926Z,54.67
2022-08-03T21:50:19.564Z,54.74
2022-08-03T21:55:21.295Z,55.01
2022-08-03T22:00:23.286Z,55.69
2022-08-03T22:05:28.971Z,55.12
2022-08-03T22:10:44.838Z,55.46
2022-08-03T22:15:47.679Z,55.74
2022-08-03T22:20:52.103Z,55.85
2022-08-03T22:25:53.647Z,56.26
2022-08-03T22:30:55.155Z,56.47
2022-08-03T22:35:57.451Z,56.73
2022-08-03T22:40:59.041Z,56.88
2022-08-03T22:46:09.554Z,56.85
2022-08-03T22:51:14.247Z,56.69
2022-08-03T22:56:15.759Z,56.39
2022-08-03T23:01:18.696Z,56.96
2022-08-03T23:06:20.255Z,57.67
2022-08-03T23:11:21.793Z,58.00
2022-08-03T23:16:28.910Z,57.95
2022-08-03T23:21:53.289Z,57.86
2022-08-03T23:26:52.929Z,57.44
2022-08-03T23:31:54.971Z,57.64
2022-08-03T23:36:56.490Z,57.86
2022-08-03T23:41:58.300Z,58.04
2022-08-03T23:47:00.688Z,57.84
2022-08-03T23:52:15.550Z,58.25
2022-08-03T23:57:37.821Z,58.37
